Weather at Aviosuperficie G. Carrer

Public forecast

Using degrees Celsius for public forecast. Weather courtesy of forecast.io.

Closest aviation weather report (METAR) to Aviosuperficie G. Carrer

Closest report is Venice Marco Polo Airport, 14.1 nm (26.2 km) SW. Retrieved 2020/09/22 22:50 UTC (50 minutes ago):

LIPZ 222250Z VRB02KT CAVOK 18/18 Q1011 NOSIG

Closest aviation forecast (TAF) to Aviosuperficie G. Carrer

Closest forecast is Venice Marco Polo Airport, 14.1 nm (26.2 km) SW. Retrieved 2020/09/22 18:00 UTC (6 hours ago):

TAF LIPZ 221700Z 2218/2324 VRB05KT 9999 BKN040 TEMPO 2218/2320 4000 TSRA